VXP677 KHVN-KRDU
Flight info
| Callsign | VXP677 |
|---|---|
| Flight time | 1h 21m |
| Altitude | 36000 |
| Route | BEADS EMJAY Q167 ZJAAY TAQLE3 |
| Aircraft | B737/M-SDE2E3FGHIRWXY/LB1 |
Departure
| Time | 2026-05-06 18:34 |
|---|---|
| Airport | Tweed New Haven Airport (KHVN) |
Arrival
| Time | 2026-05-06 19:56 |
|---|---|
| Airport | Raleigh-Durham International Airport (KRDU) |
| Time | Latitude | Longitude | Altitude | Speed | Heading |
|---|---|---|---|---|---|
| 2026-05-06 17:58 | 41.26858 | -72.89079 | 16 ft | 0 kts | 311° |
| 2026-05-06 18:14 | 41.26858 | -72.89078 | 53 ft | 2 kts | 311° |
| 2026-05-06 18:14 | 41.26841 | -72.89052 | 17 ft | 4 kts | 311° |
| 2026-05-06 18:15 | 41.26823 | -72.89025 | 15 ft | 4 kts | 309° |
| 2026-05-06 18:15 | 41.26808 | -72.88999 | 15 ft | 1 kts | 303° |
| 2026-05-06 18:15 | 41.26794 | -72.88974 | 18 ft | 4 kts | 307° |
| 2026-05-06 18:15 | 41.26785 | -72.88958 | 18 ft | 0 kts | 310° |
| 2026-05-06 18:20 | 41.26792 | -72.88968 | 18 ft | 4 kts | 314° |
| 2026-05-06 18:20 | 41.26809 | -72.88978 | 18 ft | 2 kts | 355° |
| 2026-05-06 18:21 | 41.26822 | -72.88972 | 17 ft | 2 kts | 28° |
| 2026-05-06 18:21 | 41.26828 | -72.88966 | 16 ft | 1 kts | 36° |
| 2026-05-06 18:21 | 41.26841 | -72.88952 | 15 ft | 4 kts | 40° |
| 2026-05-06 18:21 | 41.26866 | -72.88924 | 17 ft | 5 kts | 40° |
| 2026-05-06 18:22 | 41.26898 | -72.88910 | 15 ft | 5 kts | 5° |
| 2026-05-06 18:22 | 41.26932 | -72.88907 | 15 ft | 5 kts | 2° |
| 2026-05-06 18:22 | 41.26964 | -72.88896 | 16 ft | 5 kts | 39° |
| 2026-05-06 18:22 | 41.26970 | -72.88842 | 16 ft | 7 kts | 95° |
| 2026-05-06 18:23 | 41.26964 | -72.88764 | 16 ft | 10 kts | 96° |
| 2026-05-06 18:23 | 41.26957 | -72.88678 | 18 ft | 7 kts | 95° |
| 2026-05-06 18:23 | 41.26953 | -72.88627 | 16 ft | 4 kts | 95° |
| 2026-05-06 18:23 | 41.26944 | -72.88597 | 16 ft | 4 kts | 135° |
| 2026-05-06 18:24 | 41.26915 | -72.88591 | 16 ft | 5 kts | 181° |
| 2026-05-06 18:24 | 41.26872 | -72.88593 | 16 ft | 8 kts | 182° |
| 2026-05-06 18:24 | 41.26797 | -72.88599 | 16 ft | 13 kts | 183° |
| 2026-05-06 18:24 | 41.26705 | -72.88605 | 15 ft | 13 kts | 183° |
| 2026-05-06 18:25 | 41.26616 | -72.88612 | 16 ft | 13 kts | 183° |
| 2026-05-06 18:25 | 41.26541 | -72.88598 | 16 ft | 10 kts | 138° |
| 2026-05-06 18:25 | 41.26496 | -72.88531 | 18 ft | 10 kts | 131° |
| 2026-05-06 18:25 | 41.26454 | -72.88467 | 16 ft | 8 kts | 132° |
| 2026-05-06 18:26 | 41.26405 | -72.88475 | 16 ft | 8 kts | 216° |
| 2026-05-06 18:26 | 41.26363 | -72.88517 | 16 ft | 7 kts | 217° |
| 2026-05-06 18:26 | 41.26322 | -72.88558 | 16 ft | 7 kts | 217° |
| 2026-05-06 18:26 | 41.26282 | -72.88598 | 16 ft | 7 kts | 214° |
| 2026-05-06 18:27 | 41.26233 | -72.88617 | 16 ft | 8 kts | 190° |
| 2026-05-06 18:27 | 41.26176 | -72.88630 | 16 ft | 9 kts | 189° |
| 2026-05-06 18:27 | 41.26113 | -72.88645 | 16 ft | 10 kts | 190° |
| 2026-05-06 18:27 | 41.26048 | -72.88660 | 16 ft | 10 kts | 190° |
| 2026-05-06 18:28 | 41.25978 | -72.88677 | 16 ft | 11 kts | 190° |
| 2026-05-06 18:28 | 41.25928 | -72.88688 | 16 ft | 11 kts | 190° |
| 2026-05-06 18:28 | 41.25832 | -72.88710 | 16 ft | 10 kts | 185° |
| 2026-05-06 18:28 | 41.25784 | -72.88714 | 16 ft | 10 kts | 183° |
| 2026-05-06 18:29 | 41.25716 | -72.88718 | 16 ft | 8 kts | 182° |
| 2026-05-06 18:29 | 41.25690 | -72.88719 | 16 ft | 0 kts | 183° |
| 2026-05-06 18:31 | 41.25680 | -72.88720 | 16 ft | 4 kts | 183° |
| 2026-05-06 18:32 | 41.25636 | -72.88724 | 15 ft | 7 kts | 186° |
| 2026-05-06 18:32 | 41.25610 | -72.88773 | 15 ft | 7 kts | 265° |
| 2026-05-06 18:32 | 41.25622 | -72.88821 | 18 ft | 3 kts | 332° |
| 2026-05-06 18:32 | 41.25635 | -72.88823 | 16 ft | 0 kts | 360° |
| 2026-05-06 18:33 | 41.25734 | -72.88817 | 17 ft | 51 kts | 3° |
| 2026-05-06 18:34 | 41.26388 | -72.88772 | 15 ft | 134 kts | 3° |
| 2026-05-06 18:34 | 41.27521 | -72.88701 | 308 ft | 176 kts | 4° |
| 2026-05-06 18:34 | 41.28781 | -72.88590 | 1148 ft | 192 kts | 359° |
| 2026-05-06 18:34 | 41.30234 | -72.88401 | 1630 ft | 230 kts | 11° |
| 2026-05-06 18:35 | 41.31742 | -72.87355 | 1993 ft | 259 kts | 41° |
| 2026-05-06 18:35 | 41.32879 | -72.85401 | 2007 ft | 268 kts | 71° |
| 2026-05-06 18:35 | 41.33234 | -72.83060 | 2199 ft | 260 kts | 101° |
| 2026-05-06 18:35 | 41.32696 | -72.80768 | 2811 ft | 257 kts | 131° |
| 2026-05-06 18:36 | 41.31496 | -72.79110 | 3836 ft | 246 kts | 155° |
| 2026-05-06 18:36 | 41.29967 | -72.78231 | 4745 ft | 241 kts | 170° |
| 2026-05-06 18:36 | 41.28377 | -72.77558 | 5932 ft | 241 kts | 169° |
| 2026-05-06 18:36 | 41.26772 | -72.76882 | 7136 ft | 241 kts | 172° |
| 2026-05-06 18:37 | 41.25123 | -72.76288 | 8222 ft | 247 kts | 174° |
| 2026-05-06 18:37 | 41.23440 | -72.75612 | 9223 ft | 258 kts | 172° |
| 2026-05-06 18:37 | 41.21709 | -72.74868 | 9762 ft | 264 kts | 172° |
| 2026-05-06 18:37 | 41.19948 | -72.74107 | 9963 ft | 267 kts | 172° |
| 2026-05-06 18:38 | 41.18186 | -72.73343 | 9993 ft | 265 kts | 172° |
| 2026-05-06 18:38 | 41.16433 | -72.72584 | 9991 ft | 266 kts | 172° |
| 2026-05-06 18:38 | 41.14626 | -72.71808 | 10089 ft | 285 kts | 173° |
| 2026-05-06 18:38 | 41.12666 | -72.71749 | 10592 ft | 284 kts | 199° |
| 2026-05-06 18:39 | 41.10771 | -72.72523 | 11452 ft | 286 kts | 205° |
| 2026-05-06 18:39 | 41.08909 | -72.73497 | 12322 ft | 289 kts | 207° |
| 2026-05-06 18:39 | 41.07037 | -72.74533 | 13154 ft | 295 kts | 208° |
| 2026-05-06 18:40 | 41.03209 | -72.76656 | 14754 ft | 305 kts | 208° |
| 2026-05-06 18:40 | 41.01206 | -72.77753 | 15580 ft | 311 kts | 208° |
| 2026-05-06 18:40 | 40.99189 | -72.78850 | 16404 ft | 316 kts | 208° |
| 2026-05-06 18:40 | 40.97163 | -72.79944 | 17230 ft | 321 kts | 208° |
| 2026-05-06 18:41 | 40.95047 | -72.81081 | 18048 ft | 327 kts | 208° |
| 2026-05-06 18:41 | 40.92950 | -72.82206 | 18728 ft | 332 kts | 208° |
| 2026-05-06 18:41 | 40.90792 | -72.83359 | 19463 ft | 337 kts | 208° |
| 2026-05-06 18:41 | 40.88602 | -72.84526 | 20242 ft | 342 kts | 208° |
| 2026-05-06 18:42 | 40.86382 | -72.85708 | 21064 ft | 346 kts | 208° |
| 2026-05-06 18:42 | 40.84139 | -72.86900 | 21850 ft | 349 kts | 208° |
| 2026-05-06 18:42 | 40.81870 | -72.88106 | 22549 ft | 354 kts | 208° |
| 2026-05-06 18:42 | 40.79565 | -72.89330 | 23212 ft | 358 kts | 208° |
| 2026-05-06 18:43 | 40.77243 | -72.90562 | 23820 ft | 362 kts | 208° |
| 2026-05-06 18:43 | 40.74889 | -72.91810 | 24406 ft | 365 kts | 208° |
| 2026-05-06 18:43 | 40.72522 | -72.93063 | 24985 ft | 368 kts | 209° |
| 2026-05-06 18:43 | 40.70133 | -72.94327 | 25513 ft | 372 kts | 209° |
| 2026-05-06 18:44 | 40.67748 | -72.95588 | 26059 ft | 375 kts | 210° |
| 2026-05-06 18:44 | 40.65314 | -72.96875 | 26591 ft | 379 kts | 210° |
| 2026-05-06 18:44 | 40.62857 | -72.98174 | 27112 ft | 382 kts | 210° |
| 2026-05-06 18:44 | 40.60377 | -72.99483 | 27628 ft | 386 kts | 211° |
| 2026-05-06 18:45 | 40.57876 | -73.00802 | 28128 ft | 389 kts | 211° |
| 2026-05-06 18:45 | 40.55355 | -73.02130 | 28642 ft | 392 kts | 211° |
| 2026-05-06 18:45 | 40.52810 | -73.03470 | 29117 ft | 396 kts | 211° |
| 2026-05-06 18:45 | 40.50243 | -73.04821 | 29556 ft | 399 kts | 211° |
| 2026-05-06 18:46 | 40.47651 | -73.06183 | 29969 ft | 403 kts | 211° |
| 2026-05-06 18:46 | 40.45033 | -73.07558 | 30339 ft | 407 kts | 212° |
| 2026-05-06 18:46 | 40.42394 | -73.08942 | 30749 ft | 408 kts | 212° |
| 2026-05-06 18:46 | 40.39750 | -73.10326 | 31145 ft | 410 kts | 212° |
| 2026-05-06 18:47 | 40.37088 | -73.11719 | 31518 ft | 412 kts | 212° |
| 2026-05-06 18:47 | 40.34451 | -73.13098 | 31864 ft | 414 kts | 212° |
| 2026-05-06 18:47 | 40.31761 | -73.14505 | 32199 ft | 416 kts | 212° |
| 2026-05-06 18:47 | 40.29060 | -73.15916 | 32446 ft | 419 kts | 212° |
| 2026-05-06 18:48 | 40.26348 | -73.17332 | 32783 ft | 421 kts | 213° |
| 2026-05-06 18:48 | 40.23634 | -73.18744 | 33274 ft | 418 kts | 213° |
| 2026-05-06 18:48 | 40.20940 | -73.20143 | 33801 ft | 415 kts | 213° |
| 2026-05-06 18:48 | 40.18259 | -73.21538 | 34205 ft | 413 kts | 213° |
| 2026-05-06 18:49 | 40.15589 | -73.22929 | 34520 ft | 413 kts | 214° |
| 2026-05-06 18:49 | 40.12920 | -73.24318 | 34842 ft | 413 kts | 214° |
| 2026-05-06 18:49 | 40.10324 | -73.25822 | 35139 ft | 402 kts | 220° |
| 2026-05-06 18:49 | 40.07966 | -73.27701 | 35398 ft | 392 kts | 227° |
| 2026-05-06 18:50 | 40.05891 | -73.29922 | 35729 ft | 383 kts | 232° |
| 2026-05-06 18:50 | 40.03892 | -73.32193 | 35874 ft | 380 kts | 232° |
| 2026-05-06 18:50 | 40.01901 | -73.34451 | 35900 ft | 378 kts | 232° |
| 2026-05-06 18:51 | 39.97923 | -73.38935 | 35893 ft | 378 kts | 232° |
| 2026-05-06 18:51 | 39.93927 | -73.43412 | 35899 ft | 379 kts | 232° |
| 2026-05-06 18:52 | 39.89944 | -73.47857 | 35890 ft | 380 kts | 232° |
| 2026-05-06 18:52 | 39.85924 | -73.52336 | 35901 ft | 381 kts | 232° |
| 2026-05-06 18:53 | 39.81893 | -73.56818 | 35902 ft | 382 kts | 232° |
| 2026-05-06 18:53 | 39.77848 | -73.61309 | 35902 ft | 382 kts | 232° |
| 2026-05-06 18:54 | 39.73797 | -73.65800 | 35875 ft | 382 kts | 232° |
| 2026-05-06 18:54 | 39.69757 | -73.70272 | 35892 ft | 382 kts | 232° |
| 2026-05-06 18:55 | 39.65713 | -73.74742 | 35894 ft | 381 kts | 232° |
| 2026-05-06 18:55 | 39.61685 | -73.79188 | 35894 ft | 380 kts | 232° |
| 2026-05-06 18:56 | 39.57653 | -73.83632 | 35888 ft | 380 kts | 232° |
| 2026-05-06 18:56 | 39.53631 | -73.88058 | 35895 ft | 379 kts | 232° |
| 2026-05-06 18:57 | 39.49640 | -73.92444 | 35901 ft | 378 kts | 232° |
| 2026-05-06 18:57 | 39.45624 | -73.96852 | 35893 ft | 378 kts | 232° |
| 2026-05-06 18:58 | 39.41609 | -74.01249 | 35916 ft | 377 kts | 232° |
| 2026-05-06 18:58 | 39.37604 | -74.05632 | 35908 ft | 377 kts | 232° |
| 2026-05-06 18:59 | 39.33612 | -74.10000 | 35905 ft | 376 kts | 232° |
| 2026-05-06 18:59 | 39.29624 | -74.14359 | 35901 ft | 375 kts | 232° |
| 2026-05-06 19:00 | 39.25640 | -74.18707 | 35911 ft | 375 kts | 232° |
| 2026-05-06 19:00 | 39.21655 | -74.23049 | 35914 ft | 374 kts | 232° |
| 2026-05-06 19:01 | 39.17674 | -74.27381 | 35877 ft | 374 kts | 231° |
| 2026-05-06 19:01 | 39.13694 | -74.31705 | 35904 ft | 375 kts | 231° |
| 2026-05-06 19:02 | 39.09701 | -74.36037 | 35922 ft | 376 kts | 231° |
| 2026-05-06 19:02 | 39.05692 | -74.40380 | 35922 ft | 377 kts | 231° |
| 2026-05-06 19:03 | 39.01669 | -74.44730 | 35918 ft | 378 kts | 231° |
| 2026-05-06 19:03 | 38.97660 | -74.49060 | 35903 ft | 379 kts | 231° |
| 2026-05-06 19:04 | 38.93623 | -74.53417 | 35920 ft | 378 kts | 231° |
| 2026-05-06 19:04 | 38.89735 | -74.57929 | 35923 ft | 376 kts | 233° |
| 2026-05-06 19:05 | 38.85880 | -74.62499 | 35919 ft | 377 kts | 233° |
| 2026-05-06 19:05 | 38.82006 | -74.67045 | 35920 ft | 377 kts | 233° |
| 2026-05-06 19:06 | 38.78147 | -74.71548 | 35891 ft | 378 kts | 232° |
| 2026-05-06 19:06 | 38.74225 | -74.76058 | 35916 ft | 380 kts | 231° |
| 2026-05-06 19:07 | 38.70110 | -74.80401 | 35925 ft | 385 kts | 229° |
| 2026-05-06 19:07 | 38.65911 | -74.84708 | 35930 ft | 387 kts | 229° |
| 2026-05-06 19:08 | 38.61735 | -74.89029 | 35931 ft | 388 kts | 229° |
| 2026-05-06 19:08 | 38.57535 | -74.93393 | 35923 ft | 389 kts | 229° |
| 2026-05-06 19:09 | 38.53331 | -74.97755 | 35931 ft | 390 kts | 229° |
| 2026-05-06 19:09 | 38.49240 | -75.02237 | 35938 ft | 387 kts | 231° |
| 2026-05-06 19:10 | 38.45105 | -75.06687 | 35940 ft | 392 kts | 227° |
| 2026-05-06 19:10 | 38.40726 | -75.10851 | 35936 ft | 393 kts | 226° |
| 2026-05-06 19:11 | 38.36372 | -75.15042 | 35934 ft | 389 kts | 229° |
| 2026-05-06 19:11 | 38.31965 | -75.19098 | 35936 ft | 393 kts | 226° |
| 2026-05-06 19:12 | 38.27574 | -75.23229 | 35939 ft | 392 kts | 226° |
| 2026-05-06 19:12 | 38.23202 | -75.27398 | 35936 ft | 393 kts | 226° |
| 2026-05-06 19:13 | 38.18808 | -75.31564 | 35918 ft | 394 kts | 226° |
| 2026-05-06 19:13 | 38.14411 | -75.35717 | 35927 ft | 394 kts | 226° |
| 2026-05-06 19:14 | 38.09996 | -75.39880 | 35931 ft | 395 kts | 226° |
| 2026-05-06 19:14 | 38.05574 | -75.44043 | 35939 ft | 395 kts | 227° |
| 2026-05-06 19:15 | 38.01487 | -75.48531 | 35941 ft | 389 kts | 232° |
| 2026-05-06 19:15 | 37.97561 | -75.53250 | 35913 ft | 389 kts | 232° |
| 2026-05-06 19:16 | 37.93620 | -75.57955 | 35956 ft | 390 kts | 232° |
| 2026-05-06 19:16 | 37.89623 | -75.62650 | 35957 ft | 393 kts | 231° |
| 2026-05-06 19:17 | 37.86252 | -75.66579 | 35949 ft | 394 kts | 231° |
| 2026-05-06 19:17 | 37.82206 | -75.71285 | 35947 ft | 396 kts | 231° |
| 2026-05-06 19:18 | 37.78170 | -75.75976 | 35932 ft | 397 kts | 231° |
| 2026-05-06 19:18 | 37.74099 | -75.80701 | 35959 ft | 397 kts | 231° |
| 2026-05-06 19:19 | 37.70024 | -75.85424 | 35951 ft | 397 kts | 231° |
| 2026-05-06 19:19 | 37.65955 | -75.90134 | 35950 ft | 397 kts | 231° |
| 2026-05-06 19:20 | 37.61887 | -75.94834 | 35918 ft | 396 kts | 231° |
| 2026-05-06 19:20 | 37.58173 | -75.99772 | 35925 ft | 386 kts | 239° |
| 2026-05-06 19:20 | 37.56487 | -76.02431 | 35236 ft | 396 kts | 239° |
| 2026-05-06 19:21 | 37.54787 | -76.05168 | 34463 ft | 397 kts | 238° |
| 2026-05-06 19:21 | 37.53072 | -76.07912 | 33673 ft | 398 kts | 237° |
| 2026-05-06 19:21 | 37.51342 | -76.10650 | 32770 ft | 400 kts | 237° |
| 2026-05-06 19:21 | 37.49603 | -76.13373 | 32080 ft | 397 kts | 236° |
| 2026-05-06 19:22 | 37.47882 | -76.16047 | 31529 ft | 391 kts | 236° |
| 2026-05-06 19:22 | 37.46176 | -76.18686 | 30965 ft | 386 kts | 236° |
| 2026-05-06 19:22 | 37.44492 | -76.21289 | 30415 ft | 381 kts | 236° |
| 2026-05-06 19:22 | 37.42824 | -76.23865 | 29858 ft | 377 kts | 235° |
| 2026-05-06 19:23 | 37.41179 | -76.26404 | 29234 ft | 372 kts | 235° |
| 2026-05-06 19:23 | 37.39562 | -76.28899 | 28679 ft | 366 kts | 236° |
| 2026-05-06 19:23 | 37.37961 | -76.31361 | 28108 ft | 362 kts | 235° |
| 2026-05-06 19:23 | 37.36369 | -76.33817 | 27549 ft | 361 kts | 236° |
| 2026-05-06 19:24 | 37.34800 | -76.36276 | 26995 ft | 361 kts | 236° |
| 2026-05-06 19:24 | 37.33193 | -76.38742 | 26448 ft | 367 kts | 236° |
| 2026-05-06 19:24 | 37.31563 | -76.41235 | 25881 ft | 368 kts | 236° |
| 2026-05-06 19:24 | 37.29969 | -76.43674 | 25326 ft | 364 kts | 236° |
| 2026-05-06 19:25 | 37.28367 | -76.46128 | 24765 ft | 361 kts | 236° |
| 2026-05-06 19:25 | 37.26781 | -76.48559 | 24190 ft | 359 kts | 237° |
| 2026-05-06 19:25 | 37.25222 | -76.50958 | 23983 ft | 348 kts | 237° |
| 2026-05-06 19:25 | 37.23717 | -76.53299 | 23810 ft | 341 kts | 237° |
| 2026-05-06 19:26 | 37.22215 | -76.55650 | 23703 ft | 349 kts | 237° |
| 2026-05-06 19:26 | 37.20685 | -76.58053 | 23586 ft | 355 kts | 237° |
| 2026-05-06 19:26 | 37.19137 | -76.60475 | 23461 ft | 355 kts | 237° |
| 2026-05-06 19:26 | 37.17591 | -76.62887 | 23324 ft | 354 kts | 238° |
| 2026-05-06 19:27 | 37.16046 | -76.65292 | 23201 ft | 354 kts | 238° |
| 2026-05-06 19:27 | 37.14505 | -76.67690 | 23088 ft | 353 kts | 238° |
| 2026-05-06 19:27 | 37.12964 | -76.70086 | 22982 ft | 352 kts | 237° |
| 2026-05-06 19:27 | 37.11427 | -76.72476 | 22873 ft | 352 kts | 237° |
| 2026-05-06 19:28 | 37.09889 | -76.74864 | 22769 ft | 352 kts | 237° |
| 2026-05-06 19:28 | 37.08348 | -76.77256 | 22660 ft | 352 kts | 237° |
| 2026-05-06 19:28 | 37.06810 | -76.79641 | 22552 ft | 352 kts | 237° |
| 2026-05-06 19:28 | 37.05289 | -76.81999 | 22443 ft | 352 kts | 237° |
| 2026-05-06 19:29 | 37.03750 | -76.84383 | 22338 ft | 352 kts | 237° |
| 2026-05-06 19:29 | 37.02208 | -76.86771 | 22240 ft | 352 kts | 237° |
| 2026-05-06 19:29 | 37.00668 | -76.89152 | 22139 ft | 352 kts | 237° |
| 2026-05-06 19:29 | 36.99131 | -76.91527 | 22022 ft | 351 kts | 237° |
| 2026-05-06 19:30 | 36.97595 | -76.93898 | 21844 ft | 351 kts | 236° |
| 2026-05-06 19:30 | 36.96052 | -76.96276 | 21602 ft | 354 kts | 236° |
| 2026-05-06 19:30 | 36.94496 | -76.98669 | 21356 ft | 353 kts | 235° |
| 2026-05-06 19:30 | 36.92955 | -77.01034 | 21106 ft | 348 kts | 235° |
| 2026-05-06 19:31 | 36.91453 | -77.03339 | 20865 ft | 344 kts | 235° |
| 2026-05-06 19:31 | 36.89941 | -77.05661 | 20633 ft | 345 kts | 235° |
| 2026-05-06 19:31 | 36.86901 | -77.10329 | 20149 ft | 347 kts | 234° |
| 2026-05-06 19:32 | 36.85375 | -77.12669 | 19903 ft | 347 kts | 234° |
| 2026-05-06 19:32 | 36.83851 | -77.15005 | 19659 ft | 347 kts | 234° |
| 2026-05-06 19:32 | 36.82327 | -77.17338 | 19419 ft | 347 kts | 233° |
| 2026-05-06 19:32 | 36.80804 | -77.19667 | 19175 ft | 346 kts | 233° |
| 2026-05-06 19:33 | 36.79283 | -77.21991 | 18946 ft | 345 kts | 233° |
| 2026-05-06 19:33 | 36.77752 | -77.24307 | 18691 ft | 345 kts | 232° |
| 2026-05-06 19:33 | 36.76229 | -77.26579 | 18461 ft | 346 kts | 232° |
| 2026-05-06 19:33 | 36.74658 | -77.28912 | 18214 ft | 347 kts | 232° |
| 2026-05-06 19:34 | 36.73123 | -77.31190 | 17942 ft | 348 kts | 232° |
| 2026-05-06 19:34 | 36.71567 | -77.33498 | 17682 ft | 348 kts | 232° |
| 2026-05-06 19:34 | 36.70013 | -77.35806 | 17415 ft | 347 kts | 232° |
| 2026-05-06 19:34 | 36.68458 | -77.38114 | 17156 ft | 346 kts | 232° |
| 2026-05-06 19:35 | 36.66915 | -77.40404 | 16901 ft | 345 kts | 232° |
| 2026-05-06 19:35 | 36.65373 | -77.42692 | 16650 ft | 343 kts | 232° |
| 2026-05-06 19:35 | 36.63838 | -77.44968 | 16409 ft | 341 kts | 232° |
| 2026-05-06 19:35 | 36.62315 | -77.47224 | 16176 ft | 339 kts | 232° |
| 2026-05-06 19:36 | 36.60801 | -77.49467 | 15932 ft | 338 kts | 232° |
| 2026-05-06 19:36 | 36.59293 | -77.51698 | 15700 ft | 336 kts | 232° |
| 2026-05-06 19:36 | 36.57789 | -77.53923 | 15451 ft | 335 kts | 232° |
| 2026-05-06 19:36 | 36.56298 | -77.56127 | 15224 ft | 332 kts | 233° |
| 2026-05-06 19:37 | 36.54830 | -77.58296 | 14983 ft | 330 kts | 233° |
| 2026-05-06 19:37 | 36.53353 | -77.60477 | 14750 ft | 329 kts | 233° |
| 2026-05-06 19:37 | 36.51881 | -77.62648 | 14515 ft | 328 kts | 233° |
| 2026-05-06 19:37 | 36.50416 | -77.64809 | 14278 ft | 326 kts | 233° |
| 2026-05-06 19:38 | 36.48961 | -77.66954 | 14063 ft | 324 kts | 233° |
| 2026-05-06 19:38 | 36.47504 | -77.69098 | 13837 ft | 324 kts | 233° |
| 2026-05-06 19:38 | 36.46045 | -77.71247 | 13591 ft | 325 kts | 233° |
| 2026-05-06 19:38 | 36.44590 | -77.73386 | 13344 ft | 323 kts | 233° |
| 2026-05-06 19:39 | 36.43160 | -77.75488 | 13099 ft | 322 kts | 233° |
| 2026-05-06 19:39 | 36.41716 | -77.77609 | 12872 ft | 321 kts | 233° |
| 2026-05-06 19:39 | 36.40279 | -77.79719 | 12644 ft | 319 kts | 233° |
| 2026-05-06 19:39 | 36.38848 | -77.81818 | 12420 ft | 318 kts | 233° |
| 2026-05-06 19:40 | 36.37423 | -77.83907 | 12188 ft | 316 kts | 233° |
| 2026-05-06 19:40 | 36.36002 | -77.85989 | 11972 ft | 314 kts | 234° |
| 2026-05-06 19:40 | 36.34599 | -77.88041 | 11744 ft | 309 kts | 234° |
| 2026-05-06 19:40 | 36.33218 | -77.90059 | 11532 ft | 304 kts | 234° |
| 2026-05-06 19:41 | 36.31858 | -77.92048 | 11322 ft | 301 kts | 234° |
| 2026-05-06 19:41 | 36.30508 | -77.94025 | 11112 ft | 299 kts | 234° |
| 2026-05-06 19:41 | 36.29169 | -77.95983 | 10901 ft | 297 kts | 234° |
| 2026-05-06 19:41 | 36.27827 | -77.97947 | 10697 ft | 301 kts | 234° |
| 2026-05-06 19:42 | 36.26471 | -77.99927 | 10477 ft | 299 kts | 234° |
| 2026-05-06 19:42 | 36.25149 | -78.01851 | 10262 ft | 288 kts | 234° |
| 2026-05-06 19:42 | 36.23891 | -78.03678 | 10064 ft | 277 kts | 234° |
| 2026-05-06 19:42 | 36.22789 | -78.05559 | 9877 ft | 262 kts | 247° |
| 2026-05-06 19:43 | 36.22056 | -78.07558 | 9524 ft | 257 kts | 250° |
| 2026-05-06 19:43 | 36.21337 | -78.09562 | 9164 ft | 254 kts | 249° |
| 2026-05-06 19:43 | 36.20633 | -78.11540 | 8906 ft | 247 kts | 250° |
| 2026-05-06 19:43 | 36.19986 | -78.13473 | 8689 ft | 240 kts | 250° |
| 2026-05-06 19:44 | 36.19359 | -78.15372 | 8512 ft | 238 kts | 250° |
| 2026-05-06 19:44 | 36.18732 | -78.17267 | 8330 ft | 238 kts | 250° |
| 2026-05-06 19:44 | 36.18103 | -78.19157 | 8114 ft | 237 kts | 250° |
| 2026-05-06 19:44 | 36.17473 | -78.21046 | 7918 ft | 238 kts | 250° |
| 2026-05-06 19:45 | 36.16838 | -78.22941 | 7743 ft | 239 kts | 249° |
| 2026-05-06 19:45 | 36.16200 | -78.24839 | 7547 ft | 238 kts | 249° |
| 2026-05-06 19:45 | 36.15567 | -78.26722 | 7373 ft | 236 kts | 249° |
| 2026-05-06 19:45 | 36.14958 | -78.28606 | 7200 ft | 234 kts | 253° |
| 2026-05-06 19:46 | 36.14571 | -78.30550 | 7041 ft | 233 kts | 258° |
| 2026-05-06 19:46 | 36.14246 | -78.32512 | 6875 ft | 233 kts | 258° |
| 2026-05-06 19:46 | 36.13915 | -78.34478 | 6695 ft | 233 kts | 257° |
| 2026-05-06 19:46 | 36.13576 | -78.36429 | 6518 ft | 229 kts | 257° |
| 2026-05-06 19:47 | 36.13242 | -78.38322 | 6337 ft | 221 kts | 257° |
| 2026-05-06 19:47 | 36.12917 | -78.40148 | 6174 ft | 214 kts | 257° |
| 2026-05-06 19:47 | 36.12599 | -78.41919 | 6006 ft | 208 kts | 256° |
| 2026-05-06 19:47 | 36.12039 | -78.43523 | 5889 ft | 200 kts | 238° |
| 2026-05-06 19:48 | 36.11274 | -78.44926 | 5788 ft | 194 kts | 238° |
| 2026-05-06 19:48 | 36.10532 | -78.46289 | 5707 ft | 193 kts | 238° |
| 2026-05-06 19:48 | 36.09781 | -78.47674 | 5615 ft | 195 kts | 238° |
| 2026-05-06 19:48 | 36.09021 | -78.49078 | 5526 ft | 198 kts | 238° |
| 2026-05-06 19:49 | 36.08249 | -78.50506 | 5429 ft | 200 kts | 238° |
| 2026-05-06 19:49 | 36.07476 | -78.51936 | 5328 ft | 200 kts | 237° |
| 2026-05-06 19:49 | 36.06702 | -78.53366 | 5225 ft | 198 kts | 238° |
| 2026-05-06 19:49 | 36.05943 | -78.54768 | 5119 ft | 194 kts | 238° |
| 2026-05-06 19:50 | 36.05192 | -78.56156 | 5034 ft | 194 kts | 237° |
| 2026-05-06 19:50 | 36.04420 | -78.57526 | 4848 ft | 196 kts | 231° |
| 2026-05-06 19:50 | 36.03443 | -78.58709 | 4633 ft | 195 kts | 227° |
| 2026-05-06 19:50 | 36.02482 | -78.59886 | 4388 ft | 194 kts | 227° |
| 2026-05-06 19:51 | 36.01528 | -78.61072 | 4135 ft | 196 kts | 226° |
| 2026-05-06 19:51 | 36.00562 | -78.62270 | 3874 ft | 196 kts | 226° |
| 2026-05-06 19:51 | 35.99613 | -78.63445 | 3623 ft | 189 kts | 226° |
| 2026-05-06 19:51 | 35.98714 | -78.64557 | 3399 ft | 181 kts | 226° |
| 2026-05-06 19:52 | 35.97843 | -78.65637 | 3162 ft | 173 kts | 226° |
| 2026-05-06 19:52 | 35.97010 | -78.66668 | 2941 ft | 166 kts | 225° |
| 2026-05-06 19:52 | 35.96205 | -78.67666 | 2697 ft | 163 kts | 225° |
| 2026-05-06 19:52 | 35.95384 | -78.68681 | 2488 ft | 168 kts | 224° |
| 2026-05-06 19:53 | 35.94584 | -78.69672 | 2280 ft | 157 kts | 225° |
| 2026-05-06 19:53 | 35.93839 | -78.70597 | 2096 ft | 147 kts | 225° |
| 2026-05-06 19:53 | 35.93145 | -78.71457 | 1880 ft | 133 kts | 224° |
| 2026-05-06 19:53 | 35.92532 | -78.72217 | 1712 ft | 121 kts | 224° |
| 2026-05-06 19:54 | 35.91957 | -78.72928 | 1559 ft | 115 kts | 225° |
| 2026-05-06 19:54 | 35.91372 | -78.73653 | 1428 ft | 128 kts | 225° |
| 2026-05-06 19:54 | 35.90736 | -78.74443 | 1250 ft | 129 kts | 225° |
| 2026-05-06 19:54 | 35.90125 | -78.75202 | 1134 ft | 119 kts | 222° |
| 2026-05-06 19:55 | 35.89541 | -78.75924 | 953 ft | 119 kts | 224° |
| 2026-05-06 19:55 | 35.88946 | -78.76689 | 764 ft | 131 kts | 225° |
| 2026-05-06 19:55 | 35.88309 | -78.77444 | 628 ft | 122 kts | 225° |
| 2026-05-06 19:55 | 35.87733 | -78.78165 | 435 ft | 119 kts | 225° |
| 2026-05-06 19:56 | 35.87227 | -78.78791 | 431 ft | 82 kts | 225° |
| 2026-05-06 19:56 | 35.86929 | -78.79159 | 426 ft | 39 kts | 225° |
| 2026-05-06 19:56 | 35.86832 | -78.79287 | 436 ft | 12 kts | 232° |
| 2026-05-06 19:56 | 35.86790 | -78.79377 | 431 ft | 12 kts | 246° |
| 2026-05-06 19:57 | 35.86778 | -78.79465 | 436 ft | 9 kts | 297° |
| 2026-05-06 19:57 | 35.86806 | -78.79484 | 435 ft | 0 kts | 358° |
| 2026-05-06 19:58 | 35.86833 | -78.79469 | 430 ft | 8 kts | 37° |
| 2026-05-06 19:58 | 35.86884 | -78.79407 | 428 ft | 13 kts | 45° |
| 2026-05-06 19:58 | 35.86958 | -78.79316 | 431 ft | 17 kts | 45° |
| 2026-05-06 19:59 | 35.87038 | -78.79217 | 433 ft | 16 kts | 45° |
| 2026-05-06 19:59 | 35.87116 | -78.79120 | 429 ft | 16 kts | 45° |
| 2026-05-06 19:59 | 35.87191 | -78.79028 | 432 ft | 15 kts | 45° |
| 2026-05-06 19:59 | 35.87260 | -78.78943 | 430 ft | 10 kts | 45° |
| 2026-05-06 20:00 | 35.87311 | -78.78917 | 430 ft | 8 kts | 345° |
| 2026-05-06 20:00 | 35.87349 | -78.78954 | 429 ft | 5 kts | 314° |
| 2026-05-06 20:00 | 35.87366 | -78.78976 | 422 ft | 2 kts | 314° |
| 2026-05-06 20:00 | 35.87370 | -78.78981 | 434 ft | 0 kts | 314° |